METAR Data
IDs: Format: Raw Decoded Include TAF

Data at: 0030 UTC 19 Nov 2018

METAR for:PASD (Sand Point Arpt, AK, US)
Text:PASD 182356Z 30013KT 10SM SCT023 SCT040 BKN100 06/01 A2958 RMK AO2 SLP018 6//// T00610011 10067 20044 53001 PNO $
Temperature: 6.1°C ( 43°F)
Dewpoint: 1.1°C ( 34°F) [RH = 70%]
Pressure (altimeter):29.58 inches Hg (1001.8 mb) [Sea level pressure: 1001.8 mb]
Winds:from the WNW (300 degrees) at 15 MPH (13 knots; 6.7 m/s)
Visibility:10 or more sm (16+ km)
Ceiling:10000 feet AGL
Clouds: scattered clouds at 2300 feet AGL, scattered clouds at 4000 feet AGL, broken clouds at 10000 feet AGL
QC Flag:SOME DATA ABOVE MAY BE INACCURATE!!!"$" is an indication the sensor requires maintenance.
Text:PASD 182353Z 31014KT 10SM SCT023 SCT040 BKN100 06/01 A2957 RMK AO2 PNO $
Temperature: 6.0°C ( 43°F)
Dewpoint: 1.0°C ( 34°F) [RH = 70%]
Pressure (altimeter):29.57 inches Hg (1001.4 mb)
Winds:from the NW (310 degrees) at 16 MPH (14 knots; 7.2 m/s)
Visibility:10 or more sm (16+ km)
Ceiling:10000 feet AGL
Clouds: scattered clouds at 2300 feet AGL, scattered clouds at 4000 feet AGL, broken clouds at 10000 feet AGL
QC Flag:SOME DATA ABOVE MAY BE INACCURATE!!!"$" is an indication the sensor requires maintenance.
Text:PASD 182256Z 29008KT 10SM FEW025 FEW040 07/01 A2958 RMK AO2 SLP017 T00670011 PNO $
Temperature: 6.7°C ( 44°F)
Dewpoint: 1.1°C ( 34°F) [RH = 67%]
Pressure (altimeter):29.58 inches Hg (1001.8 mb) [Sea level pressure: 1001.7 mb]
Winds:from the WNW (290 degrees) at 9 MPH (8 knots; 4.1 m/s)
Visibility:10 or more sm (16+ km)
Ceiling:at least 12,000 feet AGL
Clouds: few clouds at 2500 feet AGL, few clouds at 4000 feet AGL
QC Flag:SOME DATA ABOVE MAY BE INACCURATE!!!"$" is an indication the sensor requires maintenance.
Text:PASD 182253Z 29010KT 10SM FEW025 FEW040 07/01 A2957 RMK AO2 PNO $
Temperature: 7.0°C ( 45°F)
Dewpoint: 1.0°C ( 34°F) [RH = 66%]
Pressure (altimeter):29.57 inches Hg (1001.4 mb)
Winds:from the WNW (290 degrees) at 12 MPH (10 knots; 5.1 m/s)
Visibility:10 or more sm (16+ km)
Ceiling:at least 12,000 feet AGL
Clouds: few clouds at 2500 feet AGL, few clouds at 4000 feet AGL
QC Flag:SOME DATA ABOVE MAY BE INACCURATE!!!"$" is an indication the sensor requires maintenance.
Text:PASD 182156Z 32008KT 10SM FEW024 FEW035 06/M01 A2957 RMK AO2 SLP017 T00561006 PNO $
Temperature: 5.6°C ( 42°F)
Dewpoint: -0.6°C ( 31°F) [RH = 64%]
Pressure (altimeter):29.57 inches Hg (1001.4 mb) [Sea level pressure: 1001.7 mb]
Winds:from the NW (320 degrees) at 9 MPH (8 knots; 4.1 m/s)
Visibility:10 or more sm (16+ km)
Ceiling:at least 12,000 feet AGL
Clouds: few clouds at 2400 feet AGL, few clouds at 3500 feet AGL
QC Flag:SOME DATA ABOVE MAY BE INACCURATE!!!"$" is an indication the sensor requires maintenance.
Text:PASD 182056Z 30008KT 10SM FEW024 SCT033 SCT070 06/M01 A2957 RMK AO2 SLP017 6//// T00561006 51011 PNO $
Temperature: 5.6°C ( 42°F)
Dewpoint: -0.6°C ( 31°F) [RH = 64%]
Pressure (altimeter):29.57 inches Hg (1001.4 mb) [Sea level pressure: 1001.7 mb]
Winds:from the WNW (300 degrees) at 9 MPH (8 knots; 4.1 m/s)
Visibility:10 or more sm (16+ km)
Ceiling:at least 12,000 feet AGL
Clouds: few clouds at 2400 feet AGL, scattered clouds at 3300 feet AGL, scattered clouds at 7000 feet AGL
QC Flag:SOME DATA ABOVE MAY BE INACCURATE!!!"$" is an indication the sensor requires maintenance.
Text:PASD 182053Z 31009KT 10SM FEW024 SCT033 SCT070 06/M01 A2957 RMK AO2 PNO $
Temperature: 6.0°C ( 43°F)
Dewpoint: -1.0°C ( 30°F) [RH = 61%]
Pressure (altimeter):29.57 inches Hg (1001.4 mb)
Winds:from the NW (310 degrees) at 10 MPH (9 knots; 4.6 m/s)
Visibility:10 or more sm (16+ km)
Ceiling:at least 12,000 feet AGL
Clouds: few clouds at 2400 feet AGL, scattered clouds at 3300 feet AGL, scattered clouds at 7000 feet AGL
QC Flag:SOME DATA ABOVE MAY BE INACCURATE!!!"$" is an indication the sensor requires maintenance.
Text:PASD 181957Z 32011KT 10SM SCT037 06/M01 A2957 RMK AO2 PNO $
Temperature: 6.0°C ( 43°F)
Dewpoint: -1.0°C ( 30°F) [RH = 61%]
Pressure (altimeter):29.57 inches Hg (1001.4 mb)
Winds:from the NW (320 degrees) at 13 MPH (11 knots; 5.7 m/s)
Visibility:10 or more sm (16+ km)
Ceiling:at least 12,000 feet AGL
Clouds: scattered clouds at 3700 feet AGL
QC Flag:SOME DATA ABOVE MAY BE INACCURATE!!!"$" is an indication the sensor requires maintenance.

TAF for:PASD (Sand Point Arpt, AK, US) issued at 2335 UTC 18 Nov 2018
Text:PASD 182335Z 1900/1924 29008KT P6SM FEW025 FEW040
Forecast period:0000 to 0400 UTC 19 November 2018
Forecast type:FROM: standard forecast or significant change
Winds:from the WNW (290 degrees) at 9 MPH (8 knots; 4.1 m/s)
Visibility:6 or more sm (10+ km)
Ceiling:at least 12,000 feet AGL
Clouds: few clouds at 2500 feet AGL, few clouds at 4000 feet AGL
Text:FM190400 31015G23KT P6SM VCSH BKN035
Forecast period:0400 to 1800 UTC 19 November 2018
Forecast type:FROM: standard forecast or significant change
Winds:from the NW (310 degrees) at 17 MPH (15 knots; 7.7 m/s) gusting to 26 MPH (23 knots; 11.8 m/s)
Visibility:6 or more sm (10+ km)
Ceiling:3500 feet AGL
Clouds: broken clouds at 3500 feet AGL
Weather:VCSH (showers in vicinity)
Text:FM191800 29012KT P6SM OVC015 AMD LTD TO CLD VIS AND WIND
Forecast period:1800 UTC 19 November 2018 to 0000 UTC 20 November 2018
Forecast type:FROM: standard forecast or significant change
Winds:from the WNW (290 degrees) at 14 MPH (12 knots; 6.2 m/s)
Visibility:6 or more sm (10+ km)
Ceiling:1500 feet AGL
Clouds: overcast cloud deck at 1500 feet AGL